KBRG/BRG METAR and TAF weather

Enter ICAO airport designator
Station Type Date Time Source
KBRG METAR 2022/11/26 09:15 UTC NOAA

KBRG 260915Z AUTO 36006KT 10SM CLR M04/M11 A3015 RMK AO2 T10411114


Station Type Date Time Source
KBRG Decoded METAR 2022/11/26 09:15 UTC NOAA

Station name not available
Nov 26, 2022 - 04:15 AM EST / 2022.11.26 0915 UTC
Wind: from the N (360 degrees) at 7 MPH (6 KT):0
Visibility: 10 mile(s):0
Sky conditions: clear
Temperature: 24.6 F (-4.1 C)
Windchill: 15 F (-9 C):1
Dew Point: 11.5 F (-11.4 C)
Relative Humidity: 56%
Pressure (altimeter): 30.15 in. Hg (1020 hPa)
ob: KBRG 260915Z AUTO 36006KT 10SM CLR M04/M11 A3015 RMK AO2 T10411114
cycle: 9

Station Type Date Time Source
KBRG TAF 2012/07/03 12:12 UTC NOAA

TAF SKBRG 031000Z 031212 VRB02KT 9999 FEW017 SCT080
TEMPO 0312/0317 11005KT VCTS - DZRAFEW015CB BKN070
TEMPO 0318/0323 TSRA FEW017CB BKN070
TEMPO 0400/0402 VCTS FEW020CB
TEMPO 0402/0406 -DZ SCT015CB
TEMPO 0408/0412 00000KT 5000 BCFG FEW005 TX23/0319Z TN10/0411Z

Example: see airport list